Terminal Aerodrome Forecast
Issued by NWS

Home | Current Version | Previous Version | Text Only | Print | Product List | Glossary Off
Versions: 1 2 3 4 5 6 7 8 9 10 11 12 13 14 15

790
FTUS41 KCLE 281122
TAFFDY
TAF
KFDY 281122Z 2812/2912 16004KT P6SM BKN200
     FM282100 12008KT P6SM BKN100
     FM290300 08008KT P6SM OVC035
     FM290500 11009KT 5SM -SHRA OVC007=

USA.gov is the U.S. government's official web portal to all federal, state and local government web resources and services.